createdAt,value
2017-09-19T00:00:29.174Z,100.00
2017-09-19T00:01:35.134Z,100.00
2017-09-19T00:02:41.286Z,100.00
2017-09-19T00:03:48.383Z,100.00
2017-09-19T00:04:55.636Z,100.00
2017-09-19T00:06:01.774Z,100.00
2017-09-19T00:07:08.587Z,100.00
2017-09-19T00:08:14.787Z,100.00
2017-09-19T00:09:21.081Z,100.00
2017-09-19T00:10:27.940Z,100.00
2017-09-19T00:11:34.382Z,100.00
2017-09-19T00:12:41.356Z,100.00
2017-09-19T00:13:48.389Z,100.00
2017-09-19T00:14:54.820Z,100.00
2017-09-19T00:16:01.087Z,100.00
2017-09-19T00:17:07.216Z,100.00
2017-09-19T00:18:13.464Z,100.00
2017-09-19T00:19:19.734Z,100.00
2017-09-19T00:20:26.472Z,100.00
2017-09-19T00:21:32.809Z,100.00
2017-09-19T00:22:38.941Z,100.00
2017-09-19T00:23:45.653Z,100.00
2017-09-19T00:24:51.997Z,100.00
2017-09-19T00:25:58.346Z,100.00
2017-09-19T00:27:04.731Z,99.95
2017-09-19T00:28:12.498Z,99.62
2017-09-19T00:29:18.793Z,100.00
2017-09-19T00:30:25.025Z,100.00
2017-09-19T00:31:31.412Z,100.00
2017-09-19T00:32:37.649Z,100.00
2017-09-19T00:33:43.774Z,100.00
2017-09-19T00:34:49.907Z,100.00
2017-09-19T00:35:56.276Z,100.00
2017-09-19T00:37:02.576Z,100.00
2017-09-19T00:38:09.205Z,99.91
2017-09-19T00:39:15.372Z,99.68
2017-09-19T00:40:21.563Z,99.62
2017-09-19T00:41:28.432Z,99.10
2017-09-19T00:42:34.596Z,99.31
2017-09-19T00:43:40.688Z,99.22
2017-09-19T00:44:48.618Z,99.51
2017-09-19T00:45:54.863Z,100.00
2017-09-19T00:47:01.017Z,100.00
2017-09-19T00:48:07.183Z,100.00
2017-09-19T00:49:13.180Z,100.00
2017-09-19T00:50:20.070Z,100.00
2017-09-19T00:51:26.193Z,100.00
2017-09-19T00:52:32.175Z,100.00
2017-09-19T00:53:38.299Z,99.80
2017-09-19T00:54:44.383Z,99.55
2017-09-19T00:55:49.866Z,99.48
2017-09-19T00:56:55.162Z,99.42
2017-09-19T00:58:00.593Z,99.35
2017-09-19T00:59:05.857Z,99.13
2017-09-19T01:00:11.519Z,98.94
2017-09-19T01:01:17.460Z,99.20
2017-09-19T01:02:23.837Z,99.50
2017-09-19T01:03:30.807Z,99.43
2017-09-19T01:04:36.557Z,99.41
2017-09-19T01:05:42.349Z,99.74
2017-09-19T01:06:48.737Z,99.70
2017-09-19T01:07:54.899Z,100.00
2017-09-19T01:09:01.088Z,100.00
2017-09-19T01:10:07.705Z,100.00
2017-09-19T01:11:13.799Z,100.00
2017-09-19T01:12:20.062Z,100.00
2017-09-19T01:13:26.930Z,100.00
2017-09-19T01:14:33.083Z,100.00
2017-09-19T01:15:39.255Z,100.00
2017-09-19T01:16:45.619Z,100.00
2017-09-19T01:17:51.679Z,100.00
2017-09-19T01:18:58.749Z,100.00
2017-09-19T01:20:04.656Z,100.00
2017-09-19T01:21:10.577Z,100.00
2017-09-19T01:22:16.710Z,100.00
2017-09-19T01:23:22.204Z,100.00
2017-09-19T01:24:28.315Z,100.00
2017-09-19T01:25:34.178Z,100.00
2017-09-19T01:26:40.330Z,100.00
2017-09-19T01:27:46.680Z,100.00
2017-09-19T01:28:52.377Z,100.00
2017-09-19T01:29:57.614Z,100.00
2017-09-19T01:31:03.366Z,100.00
2017-09-19T01:32:08.642Z,100.00
2017-09-19T01:33:14.820Z,100.00
2017-09-19T01:34:20.996Z,100.00
2017-09-19T01:35:27.067Z,99.76
2017-09-19T01:36:33.171Z,99.25
2017-09-19T01:37:39.539Z,99.37
2017-09-19T01:38:45.695Z,99.50
2017-09-19T01:39:52.590Z,99.64
2017-09-19T01:40:58.626Z,99.69
2017-09-19T01:42:04.810Z,99.95
2017-09-19T01:43:11.045Z,100.00
2017-09-19T01:44:17.458Z,100.00
2017-09-19T01:45:24.340Z,100.00
2017-09-19T01:46:31.202Z,100.00
2017-09-19T01:47:38.639Z,100.00
2017-09-19T01:48:44.749Z,100.00
2017-09-19T01:49:50.927Z,100.00
2017-09-19T01:50:57.103Z,100.00
2017-09-19T01:52:04.071Z,100.00
2017-09-19T01:53:10.246Z,100.00
2017-09-19T01:54:16.341Z,100.00
2017-09-19T01:55:22.579Z,100.00
2017-09-19T01:56:28.732Z,100.00
2017-09-19T01:57:34.530Z,100.00
2017-09-19T01:58:40.721Z,100.00
2017-09-19T01:59:46.899Z,100.00
2017-09-19T02:00:52.966Z,100.00
2017-09-19T02:01:59.091Z,100.00
2017-09-19T02:03:05.227Z,100.00
2017-09-19T02:04:11.354Z,100.00
2017-09-19T02:05:17.305Z,100.00
2017-09-19T02:06:23.449Z,100.00
2017-09-19T02:07:29.567Z,100.00
2017-09-19T02:08:36.206Z,100.00
2017-09-19T02:09:42.535Z,100.00
2017-09-19T02:10:48.738Z,100.00
2017-09-19T02:11:54.858Z,100.00
2017-09-19T02:13:00.918Z,100.00
2017-09-19T02:14:07.631Z,100.00
2017-09-19T02:15:14.290Z,100.00
2017-09-19T02:16:20.263Z,100.00
2017-09-19T02:17:26.425Z,100.00
2017-09-19T02:18:32.568Z,99.92
2017-09-19T02:19:38.616Z,99.77
2017-09-19T02:20:44.599Z,100.00
2017-09-19T02:21:50.634Z,100.00
2017-09-19T02:22:56.738Z,100.00
2017-09-19T02:24:02.879Z,100.00
2017-09-19T02:25:09.792Z,100.00
2017-09-19T02:26:16.086Z,100.00
2017-09-19T02:27:22.256Z,100.00
2017-09-19T02:28:28.422Z,99.97
2017-09-19T02:29:34.479Z,99.99
2017-09-19T02:30:40.532Z,100.00
2017-09-19T02:31:46.719Z,100.00
2017-09-19T02:32:52.849Z,100.00
2017-09-19T02:33:59.677Z,100.00
2017-09-19T02:35:05.894Z,100.00
2017-09-19T02:36:12.119Z,100.00
2017-09-19T02:37:18.079Z,100.00
2017-09-19T02:38:24.282Z,100.00
2017-09-19T02:39:31.076Z,100.00
2017-09-19T02:40:37.836Z,100.00
2017-09-19T02:41:44.008Z,100.00
2017-09-19T02:42:50.348Z,100.00
2017-09-19T02:43:56.433Z,100.00
2017-09-19T02:45:02.532Z,100.00
2017-09-19T02:46:08.802Z,100.00
2017-09-19T02:47:15.131Z,100.00
2017-09-19T02:48:21.311Z,100.00
2017-09-19T02:49:27.508Z,100.00
2017-09-19T02:50:33.594Z,100.00
2017-09-19T02:51:40.382Z,100.00
2017-09-19T02:52:46.538Z,100.00
2017-09-19T02:53:53.612Z,100.00
2017-09-19T02:55:01.578Z,100.00
2017-09-19T02:56:08.607Z,100.00
2017-09-19T02:57:14.887Z,100.00
2017-09-19T02:58:21.642Z,100.00
2017-09-19T02:59:27.736Z,100.00
2017-09-19T03:00:34.429Z,100.00
2017-09-19T03:01:42.489Z,100.00
2017-09-19T03:02:50.146Z,100.00
2017-09-19T03:03:58.360Z,100.00
2017-09-19T03:05:05.515Z,100.00
2017-09-19T03:06:12.455Z,100.00
2017-09-19T03:07:19.138Z,100.00
2017-09-19T03:08:25.366Z,100.00
2017-09-19T03:09:31.068Z,100.00
2017-09-19T03:10:38.879Z,100.00
2017-09-19T03:11:45.161Z,100.00
2017-09-19T03:12:53.534Z,100.00
2017-09-19T03:13:59.874Z,100.00
2017-09-19T03:15:08.789Z,100.00
2017-09-19T03:16:15.561Z,100.00
2017-09-19T03:17:21.698Z,100.00
2017-09-19T03:18:28.658Z,100.00
2017-09-19T03:19:34.932Z,100.00
2017-09-19T03:20:41.346Z,100.00
2017-09-19T03:21:47.770Z,100.00
2017-09-19T03:22:54.182Z,100.00
2017-09-19T03:24:00.066Z,100.00
2017-09-19T03:25:06.267Z,100.00
2017-09-19T03:26:12.521Z,100.00
2017-09-19T03:27:18.909Z,100.00
2017-09-19T03:28:25.598Z,100.00
2017-09-19T03:29:31.822Z,99.66
2017-09-19T03:30:38.266Z,99.58
2017-09-19T03:31:44.395Z,99.63
2017-09-19T03:32:50.451Z,99.71
2017-09-19T03:33:56.596Z,99.74
2017-09-19T03:35:02.659Z,99.76
2017-09-19T03:36:08.633Z,100.00
2017-09-19T03:37:14.948Z,100.00
2017-09-19T03:38:21.203Z,100.00
2017-09-19T03:39:27.378Z,100.00
2017-09-19T03:40:34.010Z,100.00
2017-09-19T03:41:41.020Z,100.00
2017-09-19T03:42:48.688Z,100.00
2017-09-19T03:43:55.119Z,100.00
2017-09-19T03:45:01.288Z,100.00
2017-09-19T03:46:08.097Z,100.00
2017-09-19T03:47:14.212Z,100.00
2017-09-19T03:48:20.472Z,100.00
2017-09-19T03:49:27.732Z,100.00
2017-09-19T03:50:33.790Z,100.00
2017-09-19T03:51:40.002Z,100.00
2017-09-19T03:52:46.215Z,100.00
2017-09-19T03:53:52.469Z,100.00
2017-09-19T03:54:58.671Z,100.00
2017-09-19T03:56:05.250Z,100.00
2017-09-19T03:57:11.463Z,100.00
2017-09-19T03:58:17.675Z,100.00
2017-09-19T03:59:23.863Z,100.00
2017-09-19T04:00:30.204Z,100.00
2017-09-19T04:01:36.626Z,100.00
2017-09-19T04:02:42.935Z,100.00
2017-09-19T04:03:49.148Z,100.00
2017-09-19T04:04:55.326Z,100.00
2017-09-19T04:06:01.508Z,100.00
2017-09-19T04:07:07.222Z,100.00
2017-09-19T04:08:13.239Z,100.00
2017-09-19T04:09:19.688Z,100.00
2017-09-19T04:10:25.850Z,100.00
2017-09-19T04:11:32.300Z,100.00
2017-09-19T04:12:38.644Z,100.00
2017-09-19T04:13:45.067Z,100.00
2017-09-19T04:14:51.422Z,100.00
2017-09-19T04:16:00.044Z,100.00
2017-09-19T04:17:07.743Z,100.00
2017-09-19T04:18:14.269Z,100.00
2017-09-19T04:19:21.183Z,100.00
2017-09-19T04:20:27.603Z,100.00
2017-09-19T04:21:33.803Z,100.00
2017-09-19T04:22:41.256Z,100.00
2017-09-19T04:23:49.315Z,100.00
2017-09-19T04:24:56.745Z,100.00
2017-09-19T04:26:03.196Z,100.00
2017-09-19T04:27:09.330Z,100.00
2017-09-19T04:28:15.314Z,100.00
2017-09-19T04:29:21.893Z,100.00
2017-09-19T04:30:28.203Z,100.00
2017-09-19T04:31:34.719Z,100.00
2017-09-19T04:32:42.854Z,100.00
2017-09-19T04:33:48.911Z,100.00
2017-09-19T04:34:55.213Z,100.00
2017-09-19T04:36:02.219Z,100.00
2017-09-19T04:37:08.222Z,100.00
2017-09-19T04:38:14.377Z,100.00
2017-09-19T04:39:20.508Z,100.00
2017-09-19T04:40:28.343Z,100.00
2017-09-19T04:41:37.562Z,100.00
2017-09-19T04:42:47.507Z,100.00
2017-09-19T04:43:58.483Z,100.00
2017-09-19T04:45:06.387Z,100.00
2017-09-19T04:46:14.731Z,100.00
2017-09-19T04:47:23.566Z,100.00
2017-09-19T04:48:33.432Z,100.00
2017-09-19T04:49:42.418Z,100.00
2017-09-19T04:50:51.193Z,100.00
2017-09-19T04:51:59.552Z,100.00
2017-09-19T04:53:07.365Z,100.00
2017-09-19T04:54:16.498Z,100.00
2017-09-19T04:55:24.502Z,100.00
2017-09-19T04:56:32.403Z,100.00
2017-09-19T04:57:40.362Z,100.00
2017-09-19T04:58:48.467Z,100.00
2017-09-19T04:59:57.140Z,100.00
2017-09-19T05:01:08.222Z,100.00
2017-09-19T05:02:16.547Z,100.00
2017-09-19T05:03:23.870Z,100.00
2017-09-19T05:04:31.395Z,100.00
2017-09-19T05:05:40.313Z,100.00
2017-09-19T05:06:48.864Z,100.00
2017-09-19T05:07:57.402Z,100.00
2017-09-19T05:09:04.896Z,100.00
2017-09-19T05:10:13.455Z,100.00
2017-09-19T05:11:24.590Z,100.00
2017-09-19T05:12:34.602Z,100.00
2017-09-19T05:13:44.463Z,100.00
2017-09-19T05:14:55.506Z,100.00
2017-09-19T05:16:04.491Z,100.00
2017-09-19T05:17:14.521Z,100.00
2017-09-19T05:18:25.464Z,100.00
2017-09-19T05:19:35.576Z,100.00
2017-09-19T05:20:46.694Z,99.95
2017-09-19T05:21:56.490Z,99.60
2017-09-19T05:23:07.436Z,99.34
2017-09-19T05:24:17.430Z,99.61
2017-09-19T05:25:26.474Z,100.00
2017-09-19T05:26:36.581Z,100.00
2017-09-19T05:27:46.498Z,100.00
2017-09-19T05:28:55.440Z,100.00
2017-09-19T05:30:05.628Z,100.00
2017-09-19T05:31:15.537Z,100.00
2017-09-19T05:32:25.540Z,100.00
2017-09-19T05:33:36.510Z,100.00
2017-09-19T05:34:46.470Z,100.00
2017-09-19T05:35:55.575Z,100.00
2017-09-19T05:37:06.459Z,100.00
2017-09-19T05:38:15.448Z,100.00
2017-09-19T05:39:26.718Z,100.00
2017-09-19T05:40:38.393Z,99.87
2017-09-19T05:41:48.444Z,99.83
2017-09-19T05:42:56.747Z,99.58
2017-09-19T05:44:05.562Z,99.09
2017-09-19T05:45:14.376Z,98.86
2017-09-19T05:46:23.480Z,98.86
2017-09-19T05:47:34.469Z,98.37
2017-09-19T05:48:43.272Z,98.31
2017-09-19T05:49:52.254Z,98.19
2017-09-19T05:51:01.398Z,98.59
2017-09-19T05:52:13.439Z,98.80
2017-09-19T05:53:24.303Z,98.67
2017-09-19T05:54:34.467Z,98.91
2017-09-19T05:55:45.421Z,98.92
2017-09-19T05:57:01.641Z,98.75
2017-09-19T05:58:23.857Z,98.55
2017-09-19T05:59:33.315Z,97.69
2017-09-19T06:00:43.356Z,97.63
2017-09-19T06:01:54.418Z,97.83
2017-09-19T06:03:04.457Z,97.84
2017-09-19T06:04:14.434Z,97.74
2017-09-19T06:05:25.393Z,97.86
2017-09-19T06:06:35.457Z,97.67
2017-09-19T06:07:45.482Z,97.17
2017-09-19T06:09:06.411Z,97.20
2017-09-19T06:10:16.410Z,97.77
2017-09-19T06:11:27.293Z,97.96
2017-09-19T06:12:38.404Z,98.08
2017-09-19T06:13:48.451Z,97.94
2017-09-19T06:14:59.367Z,97.76
2017-09-19T06:16:10.443Z,97.55
2017-09-19T06:17:20.319Z,96.74
2017-09-19T06:18:31.394Z,97.02
2017-09-19T06:19:41.337Z,97.03
2017-09-19T06:20:51.491Z,97.08
2017-09-19T06:22:02.306Z,96.73
2017-09-19T06:23:13.193Z,96.80
2017-09-19T06:24:22.314Z,97.01
2017-09-19T06:25:32.297Z,96.60
2017-09-19T06:26:42.483Z,96.24
2017-09-19T06:27:53.369Z,96.13
2017-09-19T06:29:04.273Z,95.62
2017-09-19T06:30:15.392Z,95.57
2017-09-19T06:31:26.420Z,94.70
2017-09-19T06:32:36.464Z,94.43
2017-09-19T06:33:47.531Z,94.57
2017-09-19T06:34:58.497Z,94.49
2017-09-19T06:36:09.350Z,94.08
2017-09-19T06:37:19.365Z,92.94
2017-09-19T06:38:29.343Z,93.78
2017-09-19T06:39:39.377Z,93.49
2017-09-19T06:40:49.478Z,92.83
2017-09-19T06:42:00.479Z,92.34
2017-09-19T06:43:09.330Z,91.20
2017-09-19T06:44:18.290Z,90.67
2017-09-19T06:45:28.350Z,91.11
2017-09-19T06:46:38.366Z,90.57
2017-09-19T06:47:47.392Z,90.30
2017-09-19T06:48:57.351Z,90.20
2017-09-19T06:50:08.396Z,90.96
2017-09-19T06:51:17.492Z,90.36
2017-09-19T06:52:27.450Z,90.48
2017-09-19T06:53:37.341Z,90.10
2017-09-19T06:54:47.383Z,89.98
2017-09-19T06:55:57.325Z,90.60
2017-09-19T06:57:07.366Z,89.65
2017-09-19T06:58:17.399Z,89.86
2017-09-19T06:59:29.305Z,89.64
2017-09-19T07:00:41.252Z,89.16
2017-09-19T07:01:52.338Z,90.43
2017-09-19T07:03:03.546Z,89.95
2017-09-19T07:04:14.250Z,88.87
2017-09-19T07:05:24.355Z,88.50
2017-09-19T07:06:34.307Z,87.96
2017-09-19T07:07:44.278Z,88.26
2017-09-19T07:08:55.247Z,88.24
2017-09-19T07:10:05.304Z,88.89
2017-09-19T07:11:17.374Z,88.96
2017-09-19T07:12:27.267Z,86.89
2017-09-19T07:13:39.381Z,87.24
2017-09-19T07:14:49.286Z,86.62
2017-09-19T07:15:59.414Z,87.20
2017-09-19T07:17:11.310Z,86.81
2017-09-19T07:18:22.236Z,86.40
2017-09-19T07:19:32.299Z,86.73
2017-09-19T07:20:42.264Z,86.89
2017-09-19T07:21:54.191Z,87.07
2017-09-19T07:23:04.328Z,85.84
2017-09-19T07:24:14.189Z,85.96
2017-09-19T07:25:24.254Z,86.23
2017-09-19T07:26:35.381Z,86.89
2017-09-19T07:27:45.201Z,84.82
2017-09-19T07:28:57.342Z,84.71
2017-09-19T07:30:07.181Z,83.94
2017-09-19T07:31:17.193Z,85.06
2017-09-19T07:32:27.306Z,84.52
2017-09-19T07:33:37.281Z,84.43
2017-09-19T07:34:49.295Z,84.16
2017-09-19T07:35:59.237Z,85.64
2017-09-19T07:37:09.233Z,84.34
2017-09-19T07:38:19.241Z,82.90
2017-09-19T07:39:30.260Z,83.05
2017-09-19T07:40:40.247Z,82.96
2017-09-19T07:41:50.192Z,82.28
2017-09-19T07:43:00.394Z,80.60
2017-09-19T07:44:10.101Z,80.56
2017-09-19T07:45:20.361Z,79.66
2017-09-19T07:46:30.186Z,80.58
2017-09-19T07:47:40.279Z,81.23
2017-09-19T07:48:51.291Z,79.66
2017-09-19T07:50:02.247Z,81.51
2017-09-19T07:51:14.209Z,81.88
2017-09-19T07:52:23.664Z,82.03
2017-09-19T07:53:33.187Z,80.28
2017-09-19T07:54:43.271Z,79.09
2017-09-19T07:55:54.260Z,79.66
2017-09-19T07:57:04.455Z,82.62
2017-09-19T07:58:14.173Z,81.22
2017-09-19T07:59:23.916Z,78.12
2017-09-19T08:00:35.241Z,77.05
2017-09-19T08:01:45.126Z,76.99
2017-09-19T08:02:55.136Z,78.45
2017-09-19T08:04:05.006Z,75.97
2017-09-19T08:05:15.123Z,77.74
2017-09-19T08:06:25.221Z,75.07
2017-09-19T08:07:35.020Z,75.40
2017-09-19T08:08:46.194Z,74.16
2017-09-19T08:09:56.191Z,73.85
2017-09-19T08:11:06.330Z,73.57
2017-09-19T08:12:16.191Z,73.01
2017-09-19T08:13:26.165Z,75.27
2017-09-19T08:14:36.077Z,74.45
2017-09-19T08:15:46.151Z,74.73
2017-09-19T08:16:56.103Z,74.15
2017-09-19T08:18:07.132Z,74.24
2017-09-19T08:19:20.176Z,73.36
2017-09-19T08:20:30.231Z,74.62
2017-09-19T08:21:40.098Z,74.37
2017-09-19T08:22:51.118Z,74.89
2017-09-19T08:24:01.519Z,75.72
2017-09-19T08:25:10.919Z,74.15
2017-09-19T08:26:21.157Z,74.72
2017-09-19T08:27:31.023Z,75.02
2017-09-19T08:28:39.955Z,74.68
2017-09-19T08:29:49.063Z,75.13
2017-09-19T08:30:59.075Z,74.90
2017-09-19T08:32:10.088Z,75.35
2017-09-19T08:33:20.139Z,75.76
2017-09-19T08:34:31.161Z,73.89
2017-09-19T08:35:42.140Z,74.35
2017-09-19T08:36:52.130Z,73.85
2017-09-19T08:38:02.956Z,73.62
2017-09-19T08:39:13.063Z,73.85
2017-09-19T08:40:22.128Z,73.09
2017-09-19T08:41:31.144Z,73.63
2017-09-19T08:42:40.392Z,72.03
2017-09-19T08:43:49.998Z,71.80
2017-09-19T08:45:00.080Z,72.48
2017-09-19T08:46:10.080Z,72.59
2017-09-19T08:47:20.095Z,72.32
2017-09-19T08:48:30.981Z,72.31
2017-09-19T08:49:42.155Z,71.33
2017-09-19T08:50:52.996Z,70.56
2017-09-19T08:52:02.982Z,70.15
2017-09-19T08:53:11.948Z,70.48
2017-09-19T08:54:22.082Z,70.42
2017-09-19T08:55:33.085Z,71.11
2017-09-19T08:56:43.067Z,70.82
2017-09-19T08:57:52.909Z,70.97
2017-09-19T08:59:03.022Z,71.96
2017-09-19T09:00:14.032Z,71.08
2017-09-19T09:01:24.086Z,71.37
2017-09-19T09:02:34.046Z,71.11
2017-09-19T09:03:44.057Z,70.72
2017-09-19T09:04:54.018Z,70.49
2017-09-19T09:06:04.042Z,70.16
2017-09-19T09:07:15.035Z,70.09
2017-09-19T09:08:25.059Z,70.63
2017-09-19T09:09:35.018Z,70.09
2017-09-19T09:10:45.988Z,68.37
2017-09-19T09:11:56.822Z,69.56
2017-09-19T09:13:07.910Z,69.21
2017-09-19T09:14:17.982Z,68.46
2017-09-19T09:15:28.089Z,68.50
2017-09-19T09:16:37.165Z,67.74
2017-09-19T09:17:46.232Z,66.59
2017-09-19T09:18:56.989Z,67.99
2017-09-19T09:20:08.063Z,67.13
2017-09-19T09:21:17.004Z,68.64
2017-09-19T09:22:27.112Z,67.02
2017-09-19T09:23:37.176Z,66.24
2017-09-19T09:24:48.017Z,67.09
2017-09-19T09:25:58.958Z,67.10
2017-09-19T09:27:08.956Z,68.61
2017-09-19T09:28:19.007Z,67.18
2017-09-19T09:29:28.932Z,67.14
2017-09-19T09:30:38.931Z,66.53
2017-09-19T09:31:48.998Z,66.05
2017-09-19T09:32:58.949Z,65.02
2017-09-19T09:34:09.072Z,65.10
2017-09-19T09:35:19.958Z,65.47
2017-09-19T09:36:29.900Z,66.23
2017-09-19T09:37:40.051Z,66.01
2017-09-19T09:38:48.900Z,63.24
2017-09-19T09:39:59.095Z,64.47
2017-09-19T09:41:09.972Z,65.34
2017-09-19T09:42:19.127Z,64.08
2017-09-19T09:43:29.814Z,63.97
2017-09-19T09:44:39.942Z,64.55
2017-09-19T09:45:50.927Z,64.49
2017-09-19T09:47:01.900Z,65.91
2017-09-19T09:48:11.902Z,66.86
2017-09-19T09:49:22.151Z,67.11
2017-09-19T09:50:32.958Z,68.13
2017-09-19T09:51:42.912Z,68.27
2017-09-19T09:52:53.004Z,69.54
2017-09-19T09:54:03.041Z,70.69
2017-09-19T09:55:13.865Z,70.93
2017-09-19T09:56:27.038Z,70.36
2017-09-19T09:57:36.883Z,70.66
2017-09-19T09:58:46.934Z,70.43
2017-09-19T09:59:57.172Z,71.60
2017-09-19T10:01:06.968Z,70.45
2017-09-19T10:02:17.955Z,70.97
2017-09-19T10:03:27.973Z,70.79
2017-09-19T10:04:38.000Z,68.57
2017-09-19T10:05:48.182Z,68.96
2017-09-19T10:06:59.036Z,69.16
2017-09-19T10:08:10.895Z,68.96
2017-09-19T10:09:20.865Z,68.69
2017-09-19T10:10:30.940Z,69.78
2017-09-19T10:11:41.920Z,69.62
2017-09-19T10:12:51.885Z,67.50
2017-09-19T10:14:02.880Z,66.27
2017-09-19T10:15:13.964Z,64.67
2017-09-19T10:16:24.994Z,64.68
2017-09-19T10:17:35.863Z,62.17
2017-09-19T10:18:47.845Z,62.28
2017-09-19T10:19:58.873Z,61.70
2017-09-19T10:21:08.921Z,62.20
2017-09-19T10:22:18.858Z,62.40
2017-09-19T10:23:28.742Z,60.98
2017-09-19T10:24:39.790Z,61.42
2017-09-19T10:25:49.899Z,58.42
2017-09-19T10:26:59.754Z,58.30
2017-09-19T10:28:09.779Z,59.29
2017-09-19T10:29:19.778Z,59.67
2017-09-19T10:30:29.863Z,58.48
2017-09-19T10:31:41.133Z,59.54
2017-09-19T10:32:51.781Z,60.84
2017-09-19T10:34:01.819Z,60.81
2017-09-19T10:35:11.785Z,60.25
2017-09-19T10:36:21.869Z,61.23
2017-09-19T10:37:31.799Z,61.12
2017-09-19T10:38:41.867Z,63.72
2017-09-19T10:39:52.136Z,63.91
2017-09-19T10:41:02.800Z,64.56
2017-09-19T10:42:13.787Z,64.35
2017-09-19T10:43:25.107Z,64.60
2017-09-19T10:44:34.877Z,65.24
2017-09-19T10:45:44.987Z,66.00
2017-09-19T10:46:54.750Z,66.59
2017-09-19T10:48:04.861Z,66.38
2017-09-19T10:49:15.751Z,65.72
2017-09-19T10:50:25.875Z,63.18
2017-09-19T10:51:36.024Z,63.97
2017-09-19T10:52:46.799Z,62.56
2017-09-19T10:53:56.946Z,62.36
2017-09-19T10:55:06.862Z,62.08
2017-09-19T10:56:17.688Z,61.12
2017-09-19T10:57:26.656Z,60.95
2017-09-19T10:58:35.846Z,59.69
2017-09-19T10:59:45.690Z,60.03
2017-09-19T11:00:56.710Z,58.63
2017-09-19T11:02:06.714Z,60.98
2017-09-19T11:03:16.770Z,61.29
2017-09-19T11:04:26.733Z,60.72
2017-09-19T11:05:36.777Z,62.76
2017-09-19T11:06:46.851Z,62.37
2017-09-19T11:07:57.875Z,63.93
2017-09-19T11:09:08.711Z,64.05
2017-09-19T11:10:19.717Z,64.80
2017-09-19T11:11:30.839Z,64.65
2017-09-19T11:12:41.707Z,65.46
2017-09-19T11:13:51.732Z,65.55
2017-09-19T11:15:01.654Z,66.00
2017-09-19T11:16:11.699Z,65.47
2017-09-19T11:17:21.799Z,66.04
2017-09-19T11:18:33.775Z,66.43
2017-09-19T11:19:44.771Z,65.17
2017-09-19T11:20:57.794Z,65.35
2017-09-19T11:22:07.699Z,64.07
2017-09-19T11:23:17.901Z,64.65
2017-09-19T11:24:29.749Z,65.51
2017-09-19T11:25:38.678Z,64.34
2017-09-19T11:26:49.646Z,64.46
2017-09-19T11:27:59.746Z,63.95
2017-09-19T11:29:09.715Z,64.08
2017-09-19T11:30:18.697Z,63.33
2017-09-19T11:31:28.818Z,61.63
2017-09-19T11:32:38.008Z,62.56
2017-09-19T11:33:47.712Z,59.55
2017-09-19T11:34:57.745Z,57.30
2017-09-19T11:36:07.715Z,57.45
2017-09-19T11:37:17.649Z,58.41
2017-09-19T11:38:28.698Z,56.22
2017-09-19T11:39:38.730Z,56.49
2017-09-19T11:40:48.709Z,54.15
2017-09-19T11:41:58.614Z,54.01
2017-09-19T11:43:10.767Z,55.76
2017-09-19T11:44:20.619Z,56.62
2017-09-19T11:45:30.908Z,56.66
2017-09-19T11:46:40.665Z,57.63
2017-09-19T11:47:50.673Z,57.47
2017-09-19T11:49:01.703Z,57.68
2017-09-19T11:50:11.707Z,58.86
2017-09-19T11:51:22.639Z,59.48
2017-09-19T11:52:32.638Z,58.90
2017-09-19T11:53:42.662Z,59.81
2017-09-19T11:54:52.711Z,61.19
2017-09-19T11:56:02.645Z,60.46
2017-09-19T11:57:11.640Z,59.81
2017-09-19T11:58:21.655Z,59.88
2017-09-19T11:59:32.671Z,60.75
2017-09-19T12:00:42.622Z,60.92
2017-09-19T12:01:53.743Z,61.76
2017-09-19T12:03:03.717Z,61.72
2017-09-19T12:04:13.649Z,60.83
2017-09-19T12:05:23.621Z,61.23
2017-09-19T12:06:33.580Z,62.32
2017-09-19T12:07:43.857Z,61.17
2017-09-19T12:08:53.638Z,62.19
2017-09-19T12:10:04.608Z,61.80
2017-09-19T12:11:14.621Z,61.63
2017-09-19T12:12:24.742Z,61.41
2017-09-19T12:13:34.604Z,61.37
2017-09-19T12:14:46.715Z,61.67
2017-09-19T12:15:56.653Z,61.57
2017-09-19T12:17:07.656Z,61.05
2017-09-19T12:18:17.710Z,61.99
2017-09-19T12:19:28.735Z,61.81
2017-09-19T12:20:40.715Z,61.81
2017-09-19T12:21:52.431Z,62.06
2017-09-19T12:23:03.585Z,61.53
2017-09-19T12:24:13.592Z,60.55
2017-09-19T12:25:24.592Z,60.47
2017-09-19T12:26:34.859Z,60.54
2017-09-19T12:27:44.691Z,62.31
2017-09-19T12:28:54.627Z,62.80
2017-09-19T12:30:05.612Z,61.22
2017-09-19T12:31:16.618Z,60.62
2017-09-19T12:32:26.554Z,60.69
2017-09-19T12:33:36.607Z,61.48
2017-09-19T12:34:46.648Z,60.92
2017-09-19T12:35:56.603Z,60.98
2017-09-19T12:37:07.546Z,60.55
2017-09-19T12:38:16.576Z,60.01
2017-09-19T12:39:26.492Z,61.40
2017-09-19T12:40:36.567Z,61.08
2017-09-19T12:41:49.515Z,59.24
2017-09-19T12:42:59.584Z,59.69
2017-09-19T12:44:10.596Z,59.21
2017-09-19T12:45:21.772Z,58.38
2017-09-19T12:46:31.846Z,58.58
2017-09-19T12:47:42.632Z,57.86
2017-09-19T12:48:53.657Z,58.55
2017-09-19T12:50:04.610Z,58.62
2017-09-19T12:51:16.530Z,58.79
2017-09-19T12:52:26.656Z,60.27
2017-09-19T12:53:37.578Z,59.97
2017-09-19T12:54:48.537Z,57.74
2017-09-19T12:55:58.682Z,58.41
2017-09-19T12:57:07.615Z,59.08
2017-09-19T12:58:18.475Z,58.87
2017-09-19T12:59:27.612Z,59.57
2017-09-19T13:00:37.451Z,59.18
2017-09-19T13:01:47.317Z,58.25
2017-09-19T13:02:56.487Z,57.35
2017-09-19T13:04:06.493Z,57.20
2017-09-19T13:05:16.626Z,59.17
2017-09-19T13:06:27.512Z,58.60
2017-09-19T13:07:37.404Z,58.98
2017-09-19T13:08:47.510Z,55.99
2017-09-19T13:09:58.453Z,57.73
2017-09-19T13:11:08.721Z,56.82
2017-09-19T13:12:19.480Z,57.08
2017-09-19T13:13:28.510Z,57.31
2017-09-19T13:14:39.588Z,58.43
2017-09-19T13:15:49.462Z,57.37
2017-09-19T13:16:59.443Z,57.22
2017-09-19T13:18:09.404Z,57.48
2017-09-19T13:19:19.462Z,58.22
2017-09-19T13:20:29.498Z,59.96
2017-09-19T13:21:37.559Z,59.39
2017-09-19T13:22:47.456Z,60.48
2017-09-19T13:23:58.581Z,60.19
2017-09-19T13:25:09.540Z,60.13
2017-09-19T13:26:19.623Z,58.73
2017-09-19T13:27:29.451Z,59.48
2017-09-19T13:28:38.661Z,62.36
2017-09-19T13:29:48.549Z,62.87
2017-09-19T13:31:09.572Z,63.79
2017-09-19T13:32:30.309Z,65.41
2017-09-19T13:33:47.575Z,64.61
2017-09-19T13:34:56.446Z,64.62
2017-09-19T13:36:06.525Z,64.11
2017-09-19T13:37:17.704Z,64.42
2017-09-19T13:38:28.463Z,63.69
2017-09-19T13:39:38.460Z,63.74
2017-09-19T13:40:48.450Z,63.35
2017-09-19T13:41:59.518Z,63.18
2017-09-19T13:43:09.495Z,63.00
2017-09-19T13:44:19.383Z,62.35
2017-09-19T13:45:29.395Z,64.41
2017-09-19T13:46:40.455Z,62.64
2017-09-19T13:47:50.382Z,62.58
2017-09-19T13:49:00.354Z,62.39
2017-09-19T13:50:11.450Z,62.08
2017-09-19T13:51:21.374Z,62.44
2017-09-19T13:52:32.579Z,61.36
2017-09-19T13:53:42.560Z,61.15
2017-09-19T13:54:53.506Z,61.23
2017-09-19T13:56:03.413Z,61.75
2017-09-19T13:57:12.445Z,61.77
2017-09-19T13:58:22.511Z,62.56
2017-09-19T13:59:33.438Z,62.76
2017-09-19T14:00:44.426Z,62.74
2017-09-19T14:01:55.439Z,63.24
2017-09-19T14:03:06.348Z,64.06
2017-09-19T14:04:16.193Z,64.27
2017-09-19T14:05:24.436Z,62.60
2017-09-19T14:06:37.443Z,61.67
2017-09-19T14:07:52.531Z,61.69
2017-09-19T14:09:06.324Z,62.37
2017-09-19T14:10:20.397Z,61.18
2017-09-19T14:11:34.318Z,62.31
2017-09-19T14:12:46.595Z,62.19
2017-09-19T14:13:58.582Z,61.51
2017-09-19T14:15:12.340Z,61.76
2017-09-19T14:16:25.152Z,62.00
2017-09-19T14:17:38.422Z,62.37
2017-09-19T14:18:50.273Z,62.37
2017-09-19T14:20:00.542Z,62.61
2017-09-19T14:21:11.067Z,62.23
2017-09-19T14:22:20.388Z,61.80
2017-09-19T14:23:31.161Z,62.38
2017-09-19T14:24:42.472Z,62.71
2017-09-19T14:25:53.382Z,63.69
2017-09-19T14:27:03.001Z,62.40
2017-09-19T14:28:13.127Z,62.51
2017-09-19T14:29:22.575Z,63.20
2017-09-19T14:30:32.220Z,63.86
2017-09-19T14:31:42.192Z,64.15
2017-09-19T14:32:53.297Z,63.82
2017-09-19T14:34:03.322Z,63.46
2017-09-19T14:35:15.360Z,63.22
2017-09-19T14:36:28.542Z,63.18
2017-09-19T14:37:43.316Z,63.92
2017-09-19T14:38:55.252Z,64.18
2017-09-19T14:40:07.528Z,63.37